WMKN/TGG METAR and TAF weather

Enter ICAO airport designator
Station Type Date Time Source
WMKN METAR 2021/05/12 23:00 UTC NOAA

WMKN 122300Z 20003KT 160V240 9999 FEW022 25/24 Q1006


Station Type Date Time Source
WMKN Decoded METAR 2021/05/12 23:00 UTC NOAA

Station name not available
May 12, 2021 - 07:00 PM EDT / 2021.05.12 2300 UTC
Wind: from the SSW (200 degrees) at 3 MPH (3 KT) (direction variable):0
Visibility: greater than 7 mile(s):0
Sky conditions: mostly clear
Temperature: 77 F (25 C)
Dew Point: 75 F (24 C)
Relative Humidity: 94%
Pressure (altimeter): 29.71 in. Hg (1006 hPa)
ob: WMKN 122300Z 20003KT 160V240 9999 FEW022 25/24 Q1006
cycle: 23

Station Type Date Time Source
WMKN TAF 2021/05/12 18:00 UTC NOAA

TAF WMKN 121700Z 1218/1318 20005KT 9999 FEW022
BECMG 1300/1301 VRB03KT FEW018
TEMPO 1306/1308 7000 -TSRA FEW017CB
BECMG 1311/1312 FEW022

Example: see airport list